createdAt,value
2018-05-15T04:29:50.476Z,5.90
2018-05-15T04:32:22.359Z,5.90
2018-05-15T04:34:54.235Z,6.30
2018-05-15T04:37:26.122Z,5.93
2018-05-15T04:39:58.007Z,6.10
2018-05-15T04:42:30.656Z,6.10
2018-05-15T04:45:02.536Z,5.97
2018-05-15T04:47:35.189Z,5.80
2018-05-15T04:50:07.067Z,5.73
2018-05-15T04:52:39.734Z,5.17
2018-05-15T04:55:11.609Z,5.30
2018-05-15T04:57:44.259Z,5.13
2018-05-15T05:00:16.141Z,5.80
2018-05-15T05:02:48.793Z,5.73
2018-05-15T05:05:20.677Z,5.50
2018-05-15T05:07:53.325Z,5.70
2018-05-15T05:10:25.445Z,5.30
2018-05-15T05:12:57.346Z,4.55
2018-05-15T05:15:29.470Z,5.12
2018-05-15T05:18:01.396Z,4.50
2018-05-15T05:20:33.238Z,5.03
2018-05-15T05:23:05.126Z,4.72
2018-05-15T05:25:37.318Z,4.93
2018-05-15T05:28:09.201Z,5.40
2018-05-15T05:30:41.085Z,5.00
2018-05-15T05:33:13.032Z,4.60
2018-05-15T05:35:45.881Z,5.32
2018-05-15T05:38:17.775Z,5.30
2018-05-15T05:40:49.673Z,4.78
2018-05-15T05:43:21.563Z,4.20
2018-05-15T05:45:53.446Z,4.85
2018-05-15T05:48:25.373Z,4.32
2018-05-15T05:50:58.016Z,3.85
2018-05-15T05:53:29.915Z,4.20
2018-05-15T05:56:02.551Z,3.75
2018-05-15T05:58:34.464Z,3.92
2018-05-15T06:01:07.098Z,3.75
2018-05-15T06:03:38.986Z,3.78
2018-05-15T06:06:11.653Z,3.92
2018-05-15T06:08:43.561Z,3.65
2018-05-15T06:11:15.429Z,3.58
2018-05-15T06:13:47.314Z,4.20
2018-05-15T06:16:19.199Z,3.85
2018-05-15T06:18:51.081Z,3.90
2018-05-15T06:21:22.961Z,3.80
2018-05-15T06:23:54.845Z,4.20
2018-05-15T06:26:26.721Z,4.05
2018-05-15T06:28:58.931Z,3.30
2018-05-15T06:31:31.585Z,3.78
2018-05-15T06:34:04.234Z,3.47
2018-05-15T06:36:36.358Z,3.67
2018-05-15T06:39:08.254Z,3.60
2018-05-15T06:41:40.126Z,3.47
2018-05-15T06:44:12.790Z,3.40
2018-05-15T06:46:44.665Z,3.87
2018-05-15T06:49:16.550Z,3.58
2018-05-15T06:51:49.454Z,4.15
2018-05-15T06:54:21.364Z,3.62
2018-05-15T06:56:53.481Z,3.40
2018-05-15T06:59:25.387Z,4.28
2018-05-15T07:01:57.263Z,4.10
2018-05-15T07:04:29.151Z,3.90
2018-05-15T07:07:01.793Z,3.85
2018-05-15T07:09:33.764Z,4.28
2018-05-15T07:12:05.581Z,4.20
2018-05-15T07:14:37.507Z,4.00
2018-05-15T07:17:10.158Z,3.75
2018-05-15T07:19:42.046Z,3.65
2018-05-15T07:22:14.699Z,3.72
2018-05-15T07:24:46.577Z,3.53
2018-05-15T07:27:19.236Z,3.42
2018-05-15T07:29:51.135Z,3.70
2018-05-15T07:32:23.033Z,3.47
2018-05-15T07:34:54.920Z,3.80
2018-05-15T07:37:27.022Z,3.85
2018-05-15T07:39:59.809Z,3.53
2018-05-15T07:42:31.719Z,3.55
2018-05-15T07:45:03.605Z,3.70
2018-05-15T07:47:35.794Z,3.50
2018-05-15T07:50:07.963Z,3.80
2018-05-15T07:52:39.837Z,3.37
2018-05-15T07:55:11.743Z,3.30
2018-05-15T07:57:43.853Z,3.60
2018-05-15T08:00:15.760Z,3.50
2018-05-15T08:02:47.638Z,3.65
2018-05-15T08:05:19.534Z,3.95
2018-05-15T08:07:51.414Z,3.45
2018-05-15T08:10:23.306Z,3.70
2018-05-15T08:12:55.186Z,3.53
2018-05-15T08:15:27.837Z,3.30
2018-05-15T08:17:59.709Z,3.40
2018-05-15T08:20:31.710Z,3.53
2018-05-15T08:23:04.341Z,4.12
2018-05-15T08:25:36.229Z,3.67
2018-05-15T08:28:08.894Z,3.53
2018-05-15T08:30:40.786Z,3.30
2018-05-15T08:33:12.670Z,3.25
2018-05-15T08:35:44.602Z,3.47
2018-05-15T08:38:17.250Z,3.70
2018-05-15T08:40:49.140Z,3.45
2018-05-15T08:43:21.819Z,3.30
2018-05-15T08:45:53.710Z,3.37
2018-05-15T08:48:25.602Z,3.45
2018-05-15T08:50:57.494Z,3.47
2018-05-15T08:53:30.395Z,3.58
2018-05-15T08:56:02.286Z,2.85
2018-05-15T08:58:34.158Z,3.40
2018-05-15T09:01:06.053Z,3.60
2018-05-15T09:03:38.722Z,3.53
2018-05-15T09:06:10.619Z,3.55
2018-05-15T09:08:42.776Z,3.42
2018-05-15T09:11:14.673Z,3.30
2018-05-15T09:13:46.570Z,3.05
2018-05-15T09:16:18.470Z,3.22
2018-05-15T09:18:50.367Z,3.37
2018-05-15T09:21:22.583Z,3.47
2018-05-15T09:23:54.472Z,3.20
2018-05-15T09:26:26.361Z,2.92
2018-05-15T09:28:58.258Z,4.70
2018-05-15T09:31:31.150Z,2.80
2018-05-15T09:34:03.099Z,2.95
2018-05-15T09:36:34.914Z,3.28
2018-05-15T09:39:06.844Z,3.17
2018-05-15T09:41:38.730Z,3.12
2018-05-15T09:44:10.618Z,3.00
2018-05-15T09:46:42.497Z,3.12
2018-05-15T09:49:15.161Z,3.00
2018-05-15T09:51:47.056Z,2.92
2018-05-15T09:54:18.968Z,3.33
2018-05-15T09:56:50.883Z,3.00
2018-05-15T09:59:22.779Z,2.92
2018-05-15T10:01:55.458Z,3.20
2018-05-15T10:04:27.683Z,2.92
2018-05-15T10:06:59.553Z,3.30
2018-05-15T10:09:31.455Z,3.00
2018-05-15T10:12:03.337Z,3.35
2018-05-15T10:14:35.236Z,2.90
2018-05-15T10:17:07.142Z,3.22
2018-05-15T10:19:39.068Z,3.08
2018-05-15T10:22:10.951Z,2.85
2018-05-15T10:24:42.864Z,2.90
2018-05-15T10:27:14.753Z,3.25
2018-05-15T10:29:46.678Z,3.08
2018-05-15T10:32:19.395Z,3.17
2018-05-15T10:34:52.063Z,3.28
2018-05-15T10:37:24.030Z,3.15
2018-05-15T10:39:55.859Z,3.42
2018-05-15T10:42:28.526Z,3.30
2018-05-15T10:45:01.190Z,3.35
2018-05-15T10:47:33.386Z,3.12
2018-05-15T10:50:05.291Z,3.40
2018-05-15T10:52:37.176Z,3.30
2018-05-15T10:55:09.079Z,3.10
2018-05-15T10:57:40.955Z,2.60
2018-05-15T11:00:12.866Z,3.10
2018-05-15T11:02:44.763Z,2.95
2018-05-15T11:05:16.663Z,2.80
2018-05-15T11:07:48.530Z,2.70
2018-05-15T11:10:20.438Z,2.70
2018-05-15T11:12:52.381Z,2.40
2018-05-15T11:15:24.255Z,2.75
2018-05-15T11:17:56.129Z,2.85
2018-05-15T11:20:39.903Z,2.97
2018-05-15T11:23:23.793Z,2.83
2018-05-15T11:25:56.472Z,3.03
2018-05-15T11:28:29.131Z,2.60
2018-05-15T11:31:01.805Z,3.00
2018-05-15T11:33:35.494Z,2.72
2018-05-15T11:36:07.494Z,2.95
2018-05-15T11:38:40.135Z,3.17
2018-05-15T11:41:12.030Z,2.90
2018-05-15T11:43:43.915Z,2.95
2018-05-15T11:46:15.798Z,2.80
2018-05-15T11:48:48.339Z,3.22
2018-05-15T11:51:20.416Z,3.00
2018-05-15T11:53:51.538Z,2.97
2018-05-15T11:56:23.435Z,2.92
2018-05-15T11:58:55.310Z,3.15
2018-05-15T12:01:27.211Z,2.83
2018-05-15T12:03:59.955Z,3.12
2018-05-15T12:06:31.839Z,3.30
2018-05-15T12:09:05.662Z,3.28
2018-05-15T12:11:37.527Z,3.12
2018-05-15T12:14:09.415Z,3.03
2018-05-15T12:16:41.295Z,2.83
2018-05-15T12:19:13.177Z,3.25
2018-05-15T12:21:45.062Z,2.72
2018-05-15T12:24:16.957Z,2.87
2018-05-15T12:26:49.090Z,3.10
2018-05-15T12:29:20.967Z,3.58
2018-05-15T12:31:52.854Z,3.00
2018-05-15T12:34:25.086Z,3.58
2018-05-15T12:36:56.986Z,3.50
2018-05-15T12:39:28.864Z,3.30
2018-05-15T12:42:00.792Z,2.65
2018-05-15T12:44:32.676Z,3.28
2018-05-15T12:47:04.571Z,3.10
2018-05-15T12:49:36.485Z,3.35
2018-05-15T12:52:08.361Z,3.17
2018-05-15T12:54:40.240Z,3.20
2018-05-15T12:57:12.154Z,3.30
2018-05-15T12:59:44.038Z,3.10
2018-05-15T13:02:15.934Z,3.50
2018-05-15T13:04:48.825Z,3.30
2018-05-15T13:07:20.731Z,3.42
2018-05-15T13:09:52.622Z,3.30
2018-05-15T13:12:24.818Z,3.50
2018-05-15T13:14:56.694Z,3.20
2018-05-15T13:17:28.598Z,3.85
2018-05-15T13:20:00.494Z,3.22
2018-05-15T13:22:32.666Z,2.70
2018-05-15T13:25:04.833Z,3.17
2018-05-15T13:27:37.005Z,3.05
2018-05-15T13:30:08.898Z,3.10
2018-05-15T13:32:41.026Z,3.50
2018-05-15T13:35:13.024Z,3.40
2018-05-15T13:37:45.167Z,3.30
2018-05-15T13:40:17.041Z,3.53
2018-05-15T13:42:48.930Z,3.60
2018-05-15T13:45:20.813Z,3.75
2018-05-15T13:47:52.742Z,3.55
2018-05-15T13:50:24.692Z,3.58
2018-05-15T13:52:57.308Z,3.50
2018-05-15T13:55:29.967Z,4.00
2018-05-15T13:58:01.878Z,3.90
2018-05-15T14:00:33.766Z,3.80
2018-05-15T14:03:05.660Z,3.47
2018-05-15T14:05:37.572Z,3.60
2018-05-15T14:08:09.754Z,3.20
2018-05-15T14:10:41.643Z,3.50
2018-05-15T14:13:13.534Z,3.72
2018-05-15T14:15:46.189Z,3.30
2018-05-15T14:18:18.092Z,3.25
2018-05-15T14:20:49.986Z,3.35
2018-05-15T14:23:21.905Z,3.85
2018-05-15T14:25:53.830Z,3.45
2018-05-15T14:28:25.723Z,3.72
2018-05-15T14:30:58.370Z,3.00
2018-05-15T14:33:30.570Z,3.20
2018-05-15T14:36:02.446Z,3.00
2018-05-15T14:38:34.358Z,3.60
2018-05-15T14:41:06.251Z,3.60
2018-05-15T14:43:38.153Z,3.70
2018-05-15T14:46:10.034Z,4.15
2018-05-15T14:48:41.935Z,4.05
2018-05-15T14:51:28.713Z,3.72
2018-05-15T14:54:05.954Z,3.70
2018-05-15T14:56:37.840Z,4.03
2018-05-15T14:59:09.958Z,3.90
2018-05-15T15:01:41.843Z,3.83
2018-05-15T15:04:13.777Z,4.25
2018-05-15T15:06:45.669Z,4.30
2018-05-15T15:09:18.338Z,4.72
2018-05-15T15:11:50.213Z,4.40
2018-05-15T15:14:22.338Z,3.58
2018-05-15T15:16:54.226Z,3.53
2018-05-15T15:19:26.118Z,3.90
2018-05-15T15:21:57.997Z,3.75
2018-05-15T15:24:30.650Z,3.45
2018-05-15T15:27:02.769Z,3.78
2018-05-15T15:29:34.671Z,4.05
2018-05-15T15:32:06.661Z,3.80
2018-05-15T15:34:38.559Z,3.87
2018-05-15T15:37:10.446Z,4.28
2018-05-15T15:39:42.338Z,4.03
2018-05-15T15:42:14.436Z,4.10
2018-05-15T15:44:46.326Z,3.47
2018-05-15T15:47:18.210Z,3.65
2018-05-15T15:49:50.098Z,3.58
2018-05-15T15:52:22.997Z,3.65
2018-05-15T15:54:54.907Z,3.72
2018-05-15T15:57:27.026Z,3.45
2018-05-15T15:59:58.946Z,3.40
2018-05-15T16:02:30.823Z,3.87
2018-05-15T16:05:02.720Z,3.33
2018-05-15T16:07:34.623Z,3.60
2018-05-15T16:10:06.545Z,3.17
2018-05-15T16:12:38.424Z,3.70
2018-05-15T16:15:10.571Z,3.55
2018-05-15T16:17:42.460Z,3.80
2018-05-15T16:20:14.374Z,3.40
2018-05-15T16:22:47.053Z,3.80
2018-05-15T16:25:18.905Z,3.50
2018-05-15T16:27:51.560Z,3.70
2018-05-15T16:30:23.555Z,3.28
2018-05-15T16:32:56.414Z,3.87
2018-05-15T16:35:28.306Z,4.00
2018-05-15T16:38:00.228Z,3.83
2018-05-15T16:40:32.115Z,3.58
2018-05-15T16:43:04.754Z,3.90
2018-05-15T16:45:36.647Z,3.80
2018-05-15T16:48:09.542Z,4.47
2018-05-15T16:50:41.430Z,4.72
2018-05-15T16:53:13.349Z,3.70
2018-05-15T16:55:46.104Z,3.40
2018-05-15T16:58:18.058Z,3.83
2018-05-15T17:00:50.027Z,3.47
2018-05-15T17:03:21.984Z,3.60
2018-05-15T17:05:53.938Z,5.10
2018-05-15T17:08:26.426Z,5.90
2018-05-15T17:10:58.385Z,3.58
2018-05-15T17:13:32.360Z,3.67
2018-05-15T17:16:04.134Z,3.70
2018-05-15T17:18:36.931Z,3.30
2018-05-15T17:21:09.198Z,3.50
2018-05-15T17:23:42.253Z,3.65
2018-05-15T17:26:14.677Z,3.40
2018-05-15T17:28:46.738Z,3.53
2018-05-15T17:31:18.637Z,3.70
2018-05-15T17:33:50.510Z,3.62
2018-05-15T17:36:22.661Z,3.33
2018-05-15T17:38:54.565Z,3.40
2018-05-15T17:41:27.234Z,3.85
2018-05-15T17:43:59.324Z,3.90
2018-05-15T17:46:31.219Z,4.40
2018-05-15T17:49:03.877Z,4.80
2018-05-15T17:51:35.770Z,4.10
2018-05-15T17:54:07.660Z,3.85
2018-05-15T17:56:39.543Z,4.22
2018-05-15T17:59:11.442Z,3.83
2018-05-15T18:01:44.130Z,4.15
2018-05-15T18:04:15.998Z,4.15
2018-05-15T18:06:47.882Z,4.00
2018-05-15T18:09:19.820Z,4.35
2018-05-15T18:11:51.710Z,4.20
2018-05-15T18:14:23.598Z,4.00
2018-05-15T18:16:55.503Z,3.83
2018-05-15T18:19:27.377Z,4.05
2018-05-15T18:21:59.262Z,3.97
2018-05-15T18:24:31.156Z,4.03
2018-05-15T18:27:03.831Z,4.12
2018-05-15T18:29:36.470Z,3.78
2018-05-15T18:32:08.372Z,3.70
2018-05-15T18:34:41.006Z,4.05
2018-05-15T18:37:13.126Z,3.72
2018-05-15T18:39:45.089Z,4.07
2018-05-15T18:42:16.987Z,3.92
2018-05-15T18:44:48.866Z,4.12
2018-05-15T18:47:22.205Z,3.78
2018-05-15T18:49:54.099Z,3.50
2018-05-15T18:52:25.990Z,4.20
2018-05-15T18:54:57.863Z,3.90
2018-05-15T18:57:30.521Z,4.30
2018-05-15T19:00:02.395Z,3.90
2018-05-15T19:02:34.286Z,4.18
2018-05-15T19:05:06.168Z,4.00
2018-05-15T19:07:38.054Z,4.90
2018-05-15T19:10:09.933Z,4.20
2018-05-15T19:12:41.885Z,7.80
2018-05-15T19:15:13.769Z,4.90
2018-05-15T19:17:46.429Z,4.68
2018-05-15T19:20:18.309Z,4.30
2018-05-15T19:22:50.985Z,4.12
2018-05-15T19:25:23.629Z,4.30
2018-05-15T19:27:55.541Z,4.60
2018-05-15T19:30:28.196Z,4.50
2018-05-15T19:33:00.082Z,4.40
2018-05-15T19:35:31.958Z,4.20
2018-05-15T19:38:03.853Z,3.97
2018-05-15T19:40:35.734Z,4.83
2018-05-15T19:43:07.850Z,4.37
2018-05-15T19:45:39.748Z,4.70
2018-05-15T19:48:11.791Z,3.87
2018-05-15T19:50:43.709Z,4.50
2018-05-15T19:53:15.597Z,4.57
2018-05-15T19:55:47.487Z,4.43
2018-05-15T19:58:20.133Z,4.00
2018-05-15T20:00:52.018Z,4.23
2018-05-15T20:03:23.917Z,4.20
2018-05-15T20:05:56.549Z,4.40
2018-05-15T20:08:28.678Z,5.47
2018-05-15T20:11:00.553Z,4.77
2018-05-15T20:13:32.447Z,4.43
2018-05-15T20:16:04.348Z,4.60
2018-05-15T20:18:36.229Z,4.70
2018-05-15T20:21:08.114Z,4.47
2018-05-15T20:23:40.858Z,4.73
2018-05-15T20:26:12.837Z,4.80
2018-05-15T20:28:45.090Z,4.87
2018-05-15T20:31:17.057Z,5.03
2018-05-15T20:33:48.949Z,4.40
2018-05-15T20:36:20.826Z,4.37
2018-05-15T20:38:52.731Z,4.87
2018-05-15T20:41:25.366Z,5.47
